Saturday, January 31, 2015, 3:31 AM EST

KTHV, York Airport

Location: Spring Grove, PA, United States Lat: 39.917
Local Time: 3:31 AM EST ( 8:31 GMT) Lon: -76.883
Time Zone: US/Eastern Elev: 478 ft

Show me the last for .
Show Decoded

2015-01-31 02:53 METAR KTHV 310753Z AUTO 29005KT 10SM CLR M11/M19 A3025 RMK AO2 SLP254 T11061194
                 =
2015-01-31 00:53 METAR KTHV 310553Z AUTO 30010KT 10SM CLR M10/M18 A3023 RMK AO2 SLP247 T11001183
                 11056 21106 52008 =
2015-01-30 23:53 METAR KTHV 310453Z AUTO 31012G20KT 10SM CLR M09/M18 A3022 RMK AO2 SLP243
                 T10941178 400221094 =
2015-01-30 22:53 METAR KTHV 310353Z AUTO 30013G24KT 10SM CLR M08/M17 A3022 RMK AO2 SLP241
                 T10831167 =
2015-01-30 21:53 METAR KTHV 310253Z AUTO 31016G24KT 10SM CLR M08/M16 A3021 RMK AO2 SLP238
                 T10781156 51016 =
2015-01-30 20:53 METAR KTHV 310153Z AUTO 31013KT 10SM CLR M07/M15 A3021 RMK AO2 SLP237 T10721150
                 =
2015-01-30 19:53 METAR KTHV 310053Z AUTO 31013G27KT 10SM CLR M06/M14 A3019 RMK AO2 PK WND
                 30028/0041 SLP232 T10611139 =
2015-01-30 18:53 METAR KTHV 302353Z AUTO 30019G27KT 10SM CLR M06/M13 A3016 RMK AO2 PK WND
                 31028/2337 SLP222 T10561133 10006 21056 51035 =
2015-01-30 17:53 METAR KTHV 302253Z AUTO 30015G24KT 10SM FEW044 M04/M12 A3013 RMK AO2 PK WND
                 29027/2238 SLP212 T10441122 =
2015-01-30 16:53 METAR KTHV 302153Z AUTO 31018G27KT 10SM CLR M03/M11 A3009 RMK AO2 PK WND
                 30027/2147 SLP199 T10281111 =
2015-01-30 15:53 METAR KTHV 302053Z AUTO 29017G30KT 10SM CLR M02/M10 A3006 RMK AO2 PK WND
                 31030/2049 SLP185 T10171100 53021 =
2015-01-30 14:53 METAR KTHV 301953Z AUTO 31020G27KT 10SM FEW041 SCT065 BKN095 M01/M09 A3003 RMK
                 AO2 PK WND 31027/1953 SLP176 T10061089 =
2015-01-30 13:53 METAR KTHV 301853Z AUTO 30017G28KT 10SM SCT042 OVC090 01/M08 A3000 RMK AO2 PK
                 WND 31028/1847 SLP167 T00061078 =
2015-01-30 12:53 METAR KTHV 301753Z AUTO 30019G25KT 10SM SCT044 OVC090 01/M07 A2999 RMK AO2 PK
                 WND 31028/1732 SLP163 T00061072 10022 20006 51004 =
2015-01-30 11:53 METAR KTHV 301653Z AUTO 29013KT 10SM BKN037 BKN046 OVC080 02/M06 A2999 RMK AO2
                 SLP163 T00171061 =
2015-01-30 10:53 METAR KTHV 301553Z AUTO 31015G23KT 10SM SCT041 OVC080 02/M06 A2999 RMK AO2
                 SLP161 T00221056 =
2015-01-30 09:53 METAR KTHV 301453Z AUTO 31009KT 10SM OVC075 02/M05 A2998 RMK AO2 SLP159
                 T00221050 51016 =
2015-01-30 08:53 METAR KTHV 301353Z AUTO 28007KT 10SM OVC075 01/M05 A2997 RMK AO2 SLP157
                 T00111050 =
2015-01-30 07:53 METAR KTHV 301253Z AUTO 29008KT 10SM OVC075 01/M05 A2995 RMK AO2 SLP148
                 T00061050 =
2015-01-30 06:53 METAR KTHV 301153Z AUTO 29009KT 10SM BKN065 OVC090 01/M04 A2993 RMK AO2 SLP143
                 T00111044 10011 21017 53013 =
2015-01-30 05:53 METAR KTHV 301053Z AUTO 30009KT 10SM FEW055 BKN075 OVC090 01/M04 A2991 RMK AO2
                 SLP137 T00111039 =
2015-01-30 04:53 METAR KTHV 300953Z AUTO 29008KT 10SM BKN032 BKN065 OVC080 00/M03 A2989 RMK AO2
                 SLP129 T00001033 =
2015-01-30 03:53 METAR KTHV 300853Z AUTO 00000KT 10SM SCT035 SCT060 OVC080 M01/M04 A2989 RMK AO2
                 SLP129 T10111044 56001 =

Support USWX by starting your Amazon purchase here.